Airport, Ohio
Current Conditions -  °F | °C
As of 6:52 AM on Tuesday 21 Oct 2014 (Local Time) from KCVG Reporting Station
Few Clouds Few Clouds  
Wind Chill:   Ceiling: Unl
Heat Index:   Visibility: 9mi
Dew Point:   Wind: 8mph
Humidity: 86%   Direction: 310°NW
Pressure: 29.97"   Gusts: NA
Location:  39.0588°N, 84.6513°W
Report Text: KCVG 211052Z 31007KT 9SM FEW055 09/07 A2997 RMK AO2 SLP146 T00890067
Loading
Personal Weather Stations






























Interactive Weather Map
Tropical Storm Tracking
New forecast layout! Learn more

10-Day Weather Forecast

Advertisements
Track Severe Weather on mobile